Terminal Aerodrome Forecast
Issued by NWS

Current Version | Previous Version | Graphics & Text | Print | Product List | Glossary On
Versions: 1 2 3 4 5 6 7 8 9 10 11 12 13 14 15 16 17 18 19
902
FTUS41 KRLX 200536
TAFCKB
TAF
KCKB 200536Z 2006/2106 00000KT P6SM BKN022
     FM200900 00000KT 4SM BR BKN003
     FM201100 00000KT 2SM BR BKN003
     FM201400 VRB02KT P6SM BKN009
     FM201600 VRB03KT P6SM SCT250=

USA.gov is the U.S. government's official web portal to all federal, state and local government web resources and services.